Flight Track Log - Related Links

Times and Time Zones

All times are in EDT time to prevent confusion due to time zone crossing. See the EJA929 flight status page for this flight to view local times or setup timezone preferences in your user account.

Time Position Orientation Groundspeed Altitude Reporting Facility
EDT Latitude Longitude Course Direction KTS MPH feet Rate Location/Type
Fri 12:09:46 PM 35.3747 -97.5944 238° Southwest 172 198 1,900  Level Fort Center
Fri 12:10:41 PM 35.3539 -97.6350 238° Southwest 242 278 4,300 4,019 Climbing Fort Center
Fri 12:11:29 PM 35.4122 -97.6506 348° North 265 305 8,800 3,262 Climbing Fort Center
Fri 12:13:56 PM 35.6142 -97.6850 352° North 346 398 14,900 2,596 Climbing Kansas Center
Fri 12:14:57 PM 35.7242 -97.6453 16° North 402 463 17,800 2,244 Climbing Kansas Center
Fri 12:15:59 PM 35.8325 -97.5806 26° Northeast 417 480 19,500 1,597 Climbing Kansas Center
Fri 12:17:01 PM 35.9464 -97.5100 27° Northeast 435 501 21,100 1,645 Climbing Kansas Center
Fri 12:18:03 PM 36.0878 -97.4236 26° Northeast 456 525 22,900 1,610 Climbing Kansas Center
Fri 12:19:04 PM 36.2086 -97.3494 26° Northeast 475 547 24,400 1,024 Climbing Kansas Center
Fri 12:20:06 PM 36.3328 -97.2750 26° Northeast 488 562 25,000 293 Climbing Kansas Center
Fri 12:21:07 PM 36.4664 -97.1911 27° Northeast 524 603 25,000  Level Kansas Center
Fri 12:22:09 PM 36.6028 -97.1092 26° Northeast 542 624 25,000  Level Kansas Center
Fri 12:23:11 PM 36.7572 -97.0125 27° Northeast 552 635 25,000  Level Kansas Center
Fri 12:24:12 PM 36.8708 -96.9406 27° Northeast 549 632 25,000  Level Kansas Center
Fri 12:25:14 PM 37.0336 -96.8394 26° Northeast 546 628 25,000  Level Kansas Center
Fri 12:26:16 PM 37.1686 -96.7542 27° Northeast 546 628 25,000  Level Kansas Center
Fri 12:27:17 PM 37.3044 -96.6694 26° Northeast 546 628 25,000  Level Kansas Center
Fri 12:28:19 PM 37.4369 -96.5728 30° Northeast 549 632 25,000  Level Kansas Center
Fri 12:29:21 PM 37.5544 -96.4456 41° Northeast 553 636 25,000  Level Kansas Center
Fri 12:30:22 PM 37.6717 -96.3192 40° Northeast 556 640 25,000  Level Kansas Center
Fri 12:31:24 PM 37.7922 -96.1897 40° Northeast 566 651 25,000  Level Kansas Center
Fri 12:32:26 PM 37.9356 -96.0367 40° Northeast 558 642 25,000  Level Kansas Center
Fri 12:33:27 PM 38.0539 -95.9067 41° Northeast 566 651 25,000  Level Kansas Center
Fri 12:34:29 PM 38.1672 -95.7814 41° Northeast 565 650 25,000  Level Kansas Center
Fri 12:35:31 PM 38.3006 -95.6358 41° Northeast 566 651 25,000  Level Kansas Center
Fri 12:36:32 PM 38.4144 -95.5100 41° Northeast 565 650 25,000  Level Kansas Center
Fri 12:37:34 PM 38.5475 -95.3614 41° Northeast 570 656 25,000  Level Kansas Center
Fri 12:38:36 PM 38.6606 -95.2353 41° Northeast 566 651 25,000  Level Kansas Center
Fri 12:39:38 PM 38.7917 -95.0872 41° Northeast 566 651 25,000  Level Kansas Center
Fri 12:40:39 PM 38.9033 -94.9614 41° Northeast 564 649 25,000  Level Kansas Center
Fri 12:41:41 PM 39.0347 -94.8139 41° Northeast 567 652 25,000  Level Kansas Center
Fri 12:42:43 PM 39.1461 -94.6853 42° Northeast 566 651 25,000  Level Kansas Center
Fri 12:43:44 PM 39.2594 -94.5578 41° Northeast 567 652 25,000  Level Kansas Center
Fri 12:44:46 PM 39.3906 -94.4061 42° Northeast 569 655 25,000  Level Kansas Center
Fri 12:45:48 PM 39.5044 -94.2747 42° Northeast 566 651 25,000  Level Kansas Center
Fri 12:46:50 PM 39.6336 -94.1247 42° Northeast 567 652 25,000  Level Kansas Center
Fri 12:47:51 PM 39.7478 -93.9922 42° Northeast 565 650 25,000  Level Kansas Center
Fri 12:48:53 PM 39.8556 -93.8606 43° Northeast 571 657 25,000  Level Kansas Center
Fri 12:49:55 PM 39.9939 -93.6969 42° Northeast 563 648 25,000  Level Kansas Center
Fri 12:50:57 PM 40.1106 -93.5600 42° Northeast 566 651 25,000  Level Kansas Center
Fri 12:51:59 PM 40.2269 -93.4217 42° Northeast 566 651 25,000  Level Kansas Center
Fri 12:53:00 PM 40.3447 -93.2822 42° Northeast 570 656 25,000  Level Kansas Center
Fri 12:54:02 PM 40.4625 -93.1417 42° Northeast 571 657 25,000  Level Kansas Center
Fri 12:55:04 PM 40.5997 -92.9772 42° Northeast 573 659 25,000  Level Kansas Center
Fri 12:55:51 PM 40.6767 -92.8839 43° Northeast 572 658 25,000  Level Chicago Center
Fri 12:56:53 PM 40.7944 -92.7414 42° Northeast 573 659 25,000  Level Chicago Center
Fri 12:57:55 PM 40.9347 -92.5692 43° Northeast 574 661 25,000  Level Chicago Center
Fri 12:58:57 PM 41.0514 -92.4267 43° Northeast 574 661 25,000  Level Chicago Center
Fri 12:59:59 PM 41.1681 -92.2833 43° Northeast 574 661 25,000  Level Chicago Center
Fri 01:01:02 PM 41.2761 -92.1486 43° Northeast 574 661 25,000  Level Chicago Center
Fri 01:02:04 PM 41.4147 -91.9739 43° Northeast 575 662 25,000  Level Chicago Center
Fri 01:03:06 PM 41.5297 -91.8300 43° Northeast 575 662 25,000  Level Chicago Center
Fri 01:04:08 PM 41.6400 -91.6900 43° Northeast 559 643 25,000  Level Chicago Center
Fri 01:05:10 PM 41.7483 -91.5533 43° Northeast 544 626 25,000  Level Chicago Center
Fri 01:06:12 PM 41.8556 -91.4172 43° Northeast 539 620 25,000  Level Chicago Center
Fri 01:07:14 PM 41.9831 -91.2522 44° Northeast 537 618 25,000  Level Chicago Center
Fri 01:08:16 PM 42.0858 -91.1167 44° Northeast 528 608 25,000  Level Chicago Center
Fri 01:09:18 PM 42.1425 -90.9450 66° East 507 583 25,000  Level Chicago Center
Fri 01:10:20 PM 42.1844 -90.7633 73° East 512 589 25,000  Level Chicago Center
Fri 01:11:22 PM 42.2342 -90.5472 73° East 511 588 25,000  Level Chicago Center
Fri 01:12:24 PM 42.2750 -90.3661 73° East 511 588 25,000  Level Chicago Center
Fri 01:13:26 PM 42.3169 -90.1850 73° East 511 588 25,000  Level Chicago Center
Fri 01:14:28 PM 42.3581 -90.0042 73° East 510 587 25,000 -816 Level Chicago Center
Fri 01:15:31 PM 42.4086 -89.7739 73° East 533 613 23,300 -1,536 Descending Chicago Center
Fri 01:16:33 PM 42.4517 -89.5797 73° East 540 621 21,800 -1,452 Descending Chicago Center
Fri 01:17:35 PM 42.4922 -89.3997 73° East 505 581 20,300 -1,452 Descending Chicago Center
Fri 01:18:37 PM 42.5294 -89.2264 74° East 483 556 18,800 -1,500 Descending Chicago Center
Fri 01:19:39 PM 42.5667 -89.0528 74° East 480 552 17,200 -1,790 Descending Chicago Center
Fri 01:20:41 PM 42.6003 -88.8722 76° East 431 496 15,100 -1,839 Descending Chicago Center
Fri 01:21:43 PM 42.6294 -88.7114 76° East 440 506 13,400 -1,500 Descending Chicago Center
Fri 01:22:45 PM 42.6603 -88.5439 76° East 455 524 12,000 -1,306 Descending Chicago Center
Fri 01:23:47 PM 42.6903 -88.3819 76° East 447 514 10,700 -968 Descending Chicago Center
Fri 01:24:49 PM 42.7256 -88.2306 72° East 422 486 10,000 -1,500 Descending Chicago Center
Fri 01:25:51 PM 42.7828 -88.1147 56° Northeast 317 365 7,600 -1,452 Descending Chicago Center
Fri 01:26:53 PM 42.8319 -88.0150 56° Northeast 316 364 7,000 -290 Descending Chicago Center
Fri 01:27:55 PM 42.8803 -87.9119 57° Northeast 323 372 7,000 -339 Level Chicago Center
Fri 01:28:57 PM 42.9056 -87.8139 71° East 275 316 6,300 -912 Descending Chicago Center
Fri 01:30:00 PM 42.9325 -87.7183 69° East 270 311 5,100 -1,296 Descending Chicago Center
Fri 01:31:02 PM 42.9903 -87.6681 32° Northeast 274 315 3,600 -1,258 Descending Chicago Center
Fri 01:32:04 PM 42.9839 -87.7353 263° West 220 253 2,500 -823 Descending Chicago Center
Fri 01:33:06 PM 42.9647 -87.8111 251° West 210 242 1,900 -532 Descending Chicago Center
Fri 01:34:08 PM 42.9486 -87.8739 251° West 206 237 1,400 -484 Descending Chicago Center
Fri 01:36:00 PM 42.9333 -87.8833 246° West  Level FlightAware

Login

Don't have an account? Register now (free) for customized features, flight alerts, and more!